createdAt,value
2023-05-14T00:01:09.103Z,61.87
2023-05-14T00:03:37.845Z,61.85
2023-05-14T00:06:07.566Z,61.79
2023-05-14T00:08:36.990Z,61.72
2023-05-14T00:11:05.229Z,61.42
2023-05-14T00:13:33.593Z,61.31
2023-05-14T00:16:03.062Z,61.33
2023-05-14T00:18:31.429Z,61.33
2023-05-14T00:20:59.651Z,61.35
2023-05-14T00:23:27.826Z,61.38
2023-05-14T00:25:57.726Z,61.53
2023-05-14T00:28:26.099Z,61.71
2023-05-14T00:30:54.403Z,61.71
2023-05-14T00:33:22.571Z,61.76
2023-05-14T00:35:52.000Z,61.92
2023-05-14T00:38:20.229Z,62.10
2023-05-14T00:40:52.879Z,61.96
2023-05-14T00:43:23.153Z,62.03
2023-05-14T00:45:55.504Z,62.30
2023-05-14T00:48:24.899Z,62.19
2023-05-14T00:50:54.343Z,62.15
2023-05-14T00:53:49.846Z,62.22
2023-05-14T00:56:19.871Z,62.38
2023-05-14T00:58:48.314Z,62.32
2023-05-14T01:01:17.231Z,62.43
2023-05-14T01:03:47.348Z,62.41
2023-05-14T01:06:27.575Z,62.48
2023-05-14T01:09:23.445Z,62.71
2023-05-14T01:12:20.922Z,62.69
2023-05-14T01:15:22.047Z,63.07
2023-05-14T01:18:15.086Z,63.02
2023-05-14T01:20:44.976Z,62.90
2023-05-14T01:23:15.677Z,62.83
2023-05-14T01:25:45.401Z,63.09
2023-05-14T01:28:26.289Z,63.08
2023-05-14T01:31:06.079Z,63.24
2023-05-14T01:33:36.929Z,63.21
2023-05-14T01:36:05.755Z,63.21
2023-05-14T01:38:36.480Z,63.30
2023-05-14T01:41:07.738Z,63.26
2023-05-14T01:43:36.794Z,63.29
2023-05-14T01:46:05.130Z,63.18
2023-05-14T01:48:34.614Z,63.21
2023-05-14T01:51:03.183Z,63.15
2023-05-14T01:53:31.360Z,63.27
2023-05-14T01:55:59.736Z,63.43
2023-05-14T01:58:29.547Z,63.45
2023-05-14T02:00:57.876Z,63.86
2023-05-14T02:03:26.266Z,63.98
2023-05-14T02:05:55.088Z,64.12
2023-05-14T02:08:23.516Z,63.99
2023-05-14T02:10:51.788Z,64.38
2023-05-14T02:13:20.238Z,64.29
2023-05-14T02:15:49.503Z,64.53
2023-05-14T02:18:17.699Z,64.67
2023-05-14T02:21:11.145Z,64.55
2023-05-14T02:23:42.170Z,64.67
2023-05-14T02:26:12.988Z,64.67
2023-05-14T02:28:41.624Z,64.79
2023-05-14T02:31:09.720Z,64.57
2023-05-14T02:33:38.320Z,64.51
2023-05-14T02:36:07.065Z,64.30
2023-05-14T02:38:35.541Z,64.12
2023-05-14T02:41:03.915Z,64.24
2023-05-14T02:47:41.588Z,64.02
2023-05-14T02:50:12.138Z,64.08
2023-05-14T02:52:40.323Z,64.01
2023-05-14T02:55:09.137Z,64.02
2023-05-14T02:57:37.505Z,64.30
2023-05-14T03:00:06.919Z,64.36
2023-05-14T03:02:36.327Z,64.39
2023-05-14T03:05:05.628Z,64.20
2023-05-14T03:07:34.198Z,63.95
2023-05-14T03:10:02.504Z,63.90
2023-05-14T03:12:30.953Z,63.60
2023-05-14T03:14:59.306Z,63.32
2023-05-14T03:17:27.725Z,63.15
2023-05-14T03:19:55.986Z,62.86
2023-05-14T03:22:24.157Z,62.70
2023-05-14T03:24:53.453Z,62.24
2023-05-14T03:27:21.632Z,62.15
2023-05-14T03:29:50.327Z,61.84
2023-05-14T03:32:20.047Z,61.54
2023-05-14T03:34:48.355Z,61.37
2023-05-14T03:37:17.394Z,61.14
2023-05-14T03:39:46.065Z,61.00
2023-05-14T03:42:17.124Z,60.83
2023-05-14T03:44:45.711Z,60.62
2023-05-14T03:47:14.276Z,60.22
2023-05-14T03:49:42.356Z,59.65
2023-05-14T03:52:11.511Z,59.09
2023-05-14T03:54:41.454Z,58.87
2023-05-14T03:57:09.435Z,58.80
2023-05-14T03:59:37.913Z,58.81
2023-05-14T04:02:06.286Z,58.78
2023-05-14T04:04:34.491Z,58.70
2023-05-14T04:07:07.192Z,58.75
2023-05-14T04:09:35.420Z,58.74
2023-05-14T04:12:04.509Z,58.63
2023-05-14T04:14:32.474Z,58.65
2023-05-14T04:21:07.752Z,58.68
2023-05-14T04:23:36.228Z,58.07
2023-05-14T04:26:05.536Z,57.06
2023-05-14T04:28:33.553Z,55.85
2023-05-14T04:31:01.875Z,54.44
2023-05-14T04:33:30.275Z,53.19
2023-05-14T04:35:58.731Z,51.81
2023-05-14T04:38:26.832Z,50.50
2023-05-14T04:40:55.380Z,49.09
2023-05-14T04:43:51.194Z,48.83
2023-05-14T04:46:19.444Z,48.57
2023-05-14T04:48:50.817Z,48.86
2023-05-14T04:51:19.296Z,48.58
2023-05-14T04:53:47.473Z,48.72
2023-05-14T04:56:15.848Z,48.89
2023-05-14T04:58:44.130Z,49.46
2023-05-14T05:01:12.761Z,49.38
2023-05-14T05:03:41.252Z,49.67
2023-05-14T05:06:09.568Z,49.50
2023-05-14T05:08:38.331Z,49.58
2023-05-14T05:11:06.524Z,49.40
2023-05-14T05:13:35.214Z,49.38
2023-05-14T05:16:03.987Z,48.65
2023-05-14T05:18:33.781Z,48.40
2023-05-14T05:21:02.311Z,46.86
2023-05-14T05:23:30.274Z,44.85
2023-05-14T05:25:58.346Z,43.23
2023-05-14T05:28:26.465Z,42.32
2023-05-14T05:30:54.919Z,41.28
2023-05-14T05:33:26.638Z,40.61
2023-05-14T05:35:55.133Z,39.06
2023-05-14T05:38:23.397Z,38.19
2023-05-14T05:40:51.772Z,36.80
2023-05-14T05:43:20.862Z,36.26
2023-05-14T05:45:49.372Z,35.62
2023-05-14T05:48:18.037Z,34.49
2023-05-14T05:50:50.433Z,35.83
2023-05-14T05:53:19.340Z,36.98
2023-05-14T05:55:47.463Z,36.46
2023-05-14T05:58:18.221Z,36.59
2023-05-14T06:00:48.112Z,36.21
2023-05-14T06:03:16.318Z,36.31
2023-05-14T06:05:44.396Z,37.67
2023-05-14T06:08:14.581Z,36.92
2023-05-14T06:10:42.959Z,37.03
2023-05-14T06:13:11.565Z,38.44
2023-05-14T06:15:39.810Z,38.34
2023-05-14T06:18:08.150Z,38.30
2023-05-14T06:20:36.465Z,39.04
2023-05-14T06:23:05.354Z,40.07
2023-05-14T06:25:34.086Z,40.29
2023-05-14T06:28:02.585Z,38.66
2023-05-14T06:30:31.048Z,38.39
2023-05-14T06:33:00.076Z,38.94
2023-05-14T06:35:29.247Z,37.77
2023-05-14T06:37:57.815Z,37.04
2023-05-14T06:40:26.262Z,35.64
2023-05-14T06:42:54.531Z,35.24
2023-05-14T06:45:23.125Z,34.69
2023-05-14T06:47:51.309Z,34.85
2023-05-14T06:50:19.657Z,34.48
2023-05-14T06:52:49.263Z,34.00
2023-05-14T06:55:17.998Z,34.33
2023-05-14T06:57:46.958Z,34.22
2023-05-14T07:00:16.141Z,34.46
2023-05-14T07:02:44.196Z,35.53
2023-05-14T07:05:42.476Z,36.42
2023-05-14T07:08:11.676Z,36.38
2023-05-14T07:10:41.712Z,36.52
2023-05-14T07:13:09.982Z,37.93
2023-05-14T07:15:37.992Z,37.08
2023-05-14T07:18:08.745Z,37.20
2023-05-14T07:20:38.082Z,38.21
2023-05-14T07:23:06.360Z,37.40
2023-05-14T07:25:34.636Z,37.62
2023-05-14T07:28:02.900Z,37.99
2023-05-14T07:30:31.072Z,37.71
2023-05-14T07:32:59.226Z,37.69
2023-05-14T07:35:27.328Z,38.07
2023-05-14T07:37:55.560Z,38.44
2023-05-14T07:40:27.499Z,39.18
2023-05-14T07:42:55.946Z,39.33
2023-05-14T07:45:24.327Z,38.65
2023-05-14T07:47:52.800Z,39.36
2023-05-14T07:50:21.478Z,38.87
2023-05-14T07:52:50.883Z,38.45
2023-05-14T07:55:19.343Z,38.74
2023-05-14T07:57:47.697Z,39.45
2023-05-14T08:00:18.788Z,38.95
2023-05-14T08:02:46.916Z,38.50
2023-05-14T08:05:16.152Z,38.35
2023-05-14T08:07:45.145Z,38.59
2023-05-14T08:10:13.091Z,38.35
2023-05-14T08:12:43.957Z,37.47
2023-05-14T08:15:13.470Z,37.40
2023-05-14T08:17:41.905Z,37.35
2023-05-14T08:20:12.880Z,37.34
2023-05-14T08:22:42.795Z,37.21
2023-05-14T08:25:11.588Z,36.76
2023-05-14T08:27:42.112Z,36.78
2023-05-14T08:30:11.516Z,37.19
2023-05-14T08:32:39.774Z,36.78
2023-05-14T08:35:09.079Z,35.21
2023-05-14T08:37:37.397Z,34.96
2023-05-14T08:40:08.428Z,35.68
2023-05-14T08:42:45.580Z,36.31
2023-05-14T08:45:20.880Z,35.89
2023-05-14T08:47:51.447Z,36.17
2023-05-14T08:50:22.921Z,35.14
2023-05-14T08:52:54.459Z,34.63
2023-05-14T08:55:30.205Z,34.56
2023-05-14T08:57:58.375Z,33.46
2023-05-14T09:00:26.671Z,33.73
2023-05-14T09:02:57.597Z,32.95
2023-05-14T09:05:26.478Z,33.14
2023-05-14T09:07:54.748Z,34.10
2023-05-14T09:10:23.326Z,34.61
2023-05-14T09:12:52.320Z,34.86
2023-05-14T09:15:20.607Z,35.19
2023-05-14T09:17:49.043Z,35.28
2023-05-14T09:20:17.122Z,35.99
2023-05-14T09:22:45.338Z,35.35
2023-05-14T09:25:13.821Z,34.97
2023-05-14T09:27:42.320Z,34.02
2023-05-14T09:30:14.855Z,34.10
2023-05-14T09:32:44.921Z,34.68
2023-05-14T09:35:24.007Z,34.66
2023-05-14T09:37:56.791Z,34.76
2023-05-14T09:40:25.392Z,35.37
2023-05-14T09:42:55.071Z,34.71
2023-05-14T09:45:23.354Z,34.75
2023-05-14T09:47:54.107Z,34.54
2023-05-14T09:50:23.336Z,35.09
2023-05-14T09:52:51.565Z,34.81
2023-05-14T09:55:22.696Z,34.79
2023-05-14T09:57:52.406Z,34.07
2023-05-14T10:00:21.895Z,34.81
2023-05-14T10:02:53.836Z,35.18
2023-05-14T10:05:24.280Z,35.00
2023-05-14T10:07:57.304Z,34.90
2023-05-14T10:10:30.467Z,34.48
2023-05-14T10:13:09.231Z,31.91
2023-05-14T10:15:49.063Z,31.89
2023-05-14T10:18:23.608Z,32.05
2023-05-14T10:24:35.271Z,31.97
2023-05-14T10:27:06.212Z,32.54
2023-05-14T10:29:37.841Z,32.14
2023-05-14T10:37:20.905Z,33.24
2023-05-14T10:40:02.915Z,33.62
2023-05-14T10:42:38.300Z,34.40
2023-05-14T10:45:14.846Z,34.77
2023-05-14T10:47:48.333Z,34.69
2023-05-14T10:50:18.304Z,35.56
2023-05-14T10:52:46.736Z,35.06
2023-05-14T10:55:18.167Z,34.93
2023-05-14T10:57:47.373Z,35.04
2023-05-14T11:00:16.283Z,34.84
2023-05-14T11:02:45.289Z,34.58
2023-05-14T11:05:17.977Z,34.52
2023-05-14T11:07:49.503Z,34.99
2023-05-14T11:10:20.364Z,34.71
2023-05-14T11:12:52.492Z,34.55
2023-05-14T11:15:27.735Z,34.48
2023-05-14T11:17:57.052Z,34.56
2023-05-14T11:20:25.314Z,34.36
2023-05-14T11:22:53.618Z,33.66
2023-05-14T11:25:23.706Z,33.77
2023-05-14T11:27:52.352Z,33.89
2023-05-14T11:30:22.748Z,33.70
2023-05-14T11:32:54.302Z,33.41
2023-05-14T11:35:23.247Z,33.73
2023-05-14T11:38:20.807Z,32.92
2023-05-14T11:41:09.151Z,32.75
2023-05-14T11:43:37.435Z,32.80
2023-05-14T11:46:07.171Z,32.65
2023-05-14T11:48:35.411Z,33.47
2023-05-14T11:51:05.220Z,33.67
2023-05-14T11:53:33.512Z,33.03
2023-05-14T11:56:03.412Z,32.56
2023-05-14T11:58:34.797Z,32.70
2023-05-14T12:01:03.314Z,32.55
2023-05-14T12:03:32.113Z,32.18
2023-05-14T12:06:02.446Z,32.70
2023-05-14T12:08:33.231Z,32.86
2023-05-14T12:11:02.086Z,32.44
2023-05-14T12:13:32.710Z,32.14
2023-05-14T12:16:04.121Z,32.03
2023-05-14T12:18:32.958Z,31.37
2023-05-14T12:26:42.411Z,31.93
2023-05-14T12:29:14.781Z,32.44
2023-05-14T12:31:51.825Z,32.65
2023-05-14T12:34:20.383Z,32.31
2023-05-14T12:36:48.551Z,31.05
2023-05-14T12:39:17.928Z,31.15
2023-05-14T12:41:46.009Z,31.48
2023-05-14T12:44:14.051Z,31.31
2023-05-14T12:46:42.552Z,31.13
2023-05-14T12:49:11.754Z,31.60
2023-05-14T12:51:40.225Z,32.26
2023-05-14T12:54:08.450Z,32.11
2023-05-14T12:56:39.187Z,31.13
2023-05-14T12:59:07.405Z,30.86
2023-05-14T13:01:35.729Z,30.64
2023-05-14T13:04:06.669Z,31.38
2023-05-14T13:06:35.299Z,31.29
2023-05-14T13:09:03.715Z,31.51
2023-05-14T13:11:32.830Z,31.67
2023-05-14T13:14:02.690Z,30.99
2023-05-14T13:16:31.442Z,30.80
2023-05-14T13:18:59.813Z,31.75
2023-05-14T13:21:42.767Z,32.45
2023-05-14T13:24:11.273Z,32.57
2023-05-14T13:26:39.314Z,31.73
2023-05-14T13:29:08.615Z,32.20
2023-05-14T13:31:37.284Z,31.84
2023-05-14T13:34:05.678Z,31.70
2023-05-14T13:36:34.216Z,31.89
2023-05-14T13:39:02.844Z,31.71
2023-05-14T13:41:35.701Z,32.26
2023-05-14T13:44:06.156Z,32.67
2023-05-14T13:46:34.517Z,33.11
2023-05-14T13:49:08.756Z,32.90
2023-05-14T13:51:37.126Z,32.34
2023-05-14T13:54:05.142Z,32.84
2023-05-14T13:56:33.498Z,32.90
2023-05-14T13:59:01.632Z,33.32
2023-05-14T14:01:32.417Z,33.32
2023-05-14T14:04:01.287Z,32.67
2023-05-14T14:06:35.284Z,33.39
2023-05-14T14:09:03.440Z,33.58
2023-05-14T14:11:31.729Z,33.30
2023-05-14T14:14:00.412Z,33.17
2023-05-14T14:16:28.648Z,32.78
2023-05-14T14:18:58.368Z,32.98
2023-05-14T14:21:28.006Z,33.40
2023-05-14T14:24:24.994Z,33.54
2023-05-14T14:26:53.171Z,34.19
2023-05-14T14:29:24.000Z,34.15
2023-05-14T14:31:53.574Z,34.04
2023-05-14T14:34:22.226Z,33.99
2023-05-14T14:36:50.642Z,34.57
2023-05-14T14:39:18.804Z,34.45
2023-05-14T14:41:48.000Z,33.95
2023-05-14T14:44:18.704Z,34.15
2023-05-14T14:46:50.483Z,34.21
2023-05-14T14:49:19.070Z,33.66
2023-05-14T14:51:48.722Z,33.68
2023-05-14T14:54:16.957Z,34.14
2023-05-14T14:56:46.360Z,33.46
2023-05-14T14:59:14.594Z,33.84
2023-05-14T15:01:43.262Z,33.17
2023-05-14T15:04:12.102Z,32.88
2023-05-14T15:06:40.384Z,33.77
2023-05-14T15:09:10.191Z,34.47
2023-05-14T15:11:38.919Z,34.98
2023-05-14T15:14:07.409Z,34.44
2023-05-14T15:16:36.084Z,35.12
2023-05-14T15:19:04.380Z,34.81
2023-05-14T15:21:33.002Z,34.51
2023-05-14T15:24:04.314Z,34.80
2023-05-14T15:26:35.903Z,35.44
2023-05-14T15:29:05.205Z,34.89
2023-05-14T15:31:33.824Z,35.19
2023-05-14T15:34:02.367Z,35.97
2023-05-14T15:36:33.205Z,36.14
2023-05-14T15:39:01.574Z,36.19
2023-05-14T15:41:33.338Z,36.10
2023-05-14T15:44:02.229Z,36.12
2023-05-14T15:46:30.830Z,36.24
2023-05-14T15:49:00.037Z,36.66
2023-05-14T15:51:28.447Z,36.77
2023-05-14T15:53:57.474Z,37.05
2023-05-14T15:56:26.714Z,37.02
2023-05-14T15:58:56.998Z,37.05
2023-05-14T16:01:25.357Z,37.32
2023-05-14T16:03:54.067Z,37.53
2023-05-14T16:06:22.742Z,37.66
2023-05-14T16:08:52.558Z,38.20
2023-05-14T16:11:21.661Z,38.40
2023-05-14T16:13:50.443Z,38.56
2023-05-14T16:16:21.221Z,38.71
2023-05-14T16:18:50.122Z,38.67
2023-05-14T16:21:18.852Z,38.43
2023-05-14T16:23:48.052Z,38.75
2023-05-14T16:26:16.395Z,39.04
2023-05-14T16:28:45.296Z,39.02
2023-05-14T16:31:14.727Z,38.63
2023-05-14T16:33:43.811Z,38.99
2023-05-14T16:36:11.959Z,39.30
2023-05-14T16:38:52.324Z,39.56
2023-05-14T16:41:29.422Z,39.61
2023-05-14T16:43:57.892Z,39.90
2023-05-14T16:46:26.698Z,40.16
2023-05-14T16:48:55.476Z,40.23
2023-05-14T16:51:24.834Z,40.45
2023-05-14T16:53:55.334Z,40.14
2023-05-14T16:56:27.415Z,40.33
2023-05-14T16:58:55.791Z,40.30
2023-05-14T17:01:23.969Z,40.22
2023-05-14T17:03:52.179Z,40.42
2023-05-14T17:06:21.731Z,40.45
2023-05-14T17:08:49.961Z,40.59
2023-05-14T17:11:18.828Z,40.53
2023-05-14T17:14:00.994Z,40.50
2023-05-14T17:16:28.814Z,40.98
2023-05-14T17:18:56.091Z,41.10
2023-05-14T17:21:24.471Z,42.13
2023-05-14T17:23:52.659Z,42.98
2023-05-14T17:26:21.465Z,43.46
2023-05-14T17:32:57.299Z,42.78
2023-05-14T17:35:26.318Z,42.68
2023-05-14T17:37:54.854Z,42.94
2023-05-14T17:40:23.133Z,42.86
2023-05-14T17:42:51.303Z,42.82
2023-05-14T17:45:24.361Z,42.71
2023-05-14T17:47:53.077Z,42.90
2023-05-14T17:50:21.389Z,43.17
2023-05-14T17:52:49.497Z,43.42
2023-05-14T17:55:19.974Z,43.63
2023-05-14T17:57:48.248Z,43.70
2023-05-14T18:00:18.058Z,43.58
2023-05-14T18:02:46.500Z,43.91
2023-05-14T18:05:14.915Z,43.99
2023-05-14T18:08:10.123Z,44.25
2023-05-14T18:10:39.324Z,43.96
2023-05-14T18:13:08.942Z,43.65
2023-05-14T18:15:37.223Z,43.81
2023-05-14T18:18:06.022Z,44.13
2023-05-14T18:20:36.737Z,44.62
2023-05-14T18:23:04.948Z,45.08
2023-05-14T18:25:34.136Z,45.34
2023-05-14T18:28:03.001Z,45.71
2023-05-14T18:30:31.471Z,46.03
2023-05-14T18:33:00.216Z,46.17
2023-05-14T18:35:29.560Z,46.31
2023-05-14T18:37:58.335Z,46.26
2023-05-14T18:40:26.616Z,46.20
2023-05-14T18:43:02.633Z,46.39
2023-05-14T18:45:31.067Z,46.18
2023-05-14T18:48:26.563Z,46.16
2023-05-14T18:50:54.833Z,46.11
2023-05-14T18:53:22.834Z,46.15
2023-05-14T18:55:51.387Z,46.27
2023-05-14T18:58:21.504Z,46.09
2023-05-14T19:00:49.605Z,46.15
2023-05-14T19:03:20.940Z,46.35
2023-05-14T19:05:51.763Z,46.47
2023-05-14T19:08:20.030Z,46.99
2023-05-14T19:10:48.667Z,47.62
2023-05-14T19:13:16.711Z,47.64
2023-05-14T19:15:45.021Z,47.96
2023-05-14T19:18:41.627Z,48.36
2023-05-14T19:21:12.545Z,48.54
2023-05-14T19:23:42.178Z,48.59
